Time;durP1;ratioP1;P1;durP2;ratioP2;P2;SDS_P1;SDS_P2;PMS_P1;PMS_P2;Temp;Humidity;BMP_temperature;BMP_pressure;BME280_temperature;BME280_humidity;BME280_pressure;Samples;Min_cycle;Max_cycle;Signal;HPM_P1;HPM_P2
2023/05/07 00:02:17;;;;;;;;;;;;;;;;;;6171005;23;19920;-86
2023/05/07 00:07:32;;;;;;;;;;;;;;;;;;6158734;23;20389;-86
2023/05/07 00:10:16;;;;;;;;;;;;;;;;;;6182733;23;19927;-86
2023/05/07 00:15:53;;;;;;;;;;;;;;;;;;;;;
2023/05/07 00:18:22;;;;;;;;;;;;;;;;;;6174533;23;19927;-86
2023/05/07 00:20:48;;;;;;;;;;;;;;;;;;6177044;23;20385;-85
2023/05/07 00:23:17;;;;;;;;;;;;;;;;;;6174190;23;20249;-85
2023/05/07 00:29:01;;;;;;;;;;;;;;;;;;6147561;23;19916;-86
2023/05/07 00:31:39;;;;;;;;;;;;;;;;;;6148078;23;20246;-85
2023/05/07 00:34:08;;;;;;;;;;;;;;;;;;6119015;23;20428;-85
2023/05/07 00:36:43;;;;;;;;;;;;;;;;;;6132867;23;19916;-85
2023/05/07 00:39:22;;;;;;;;;;;;;;;;;;6169403;23;19931;-86
2023/05/07 00:45:02;;;;;;;;;;;;;;;;;;6187934;23;19916;-86
2023/05/07 00:47:42;;;;;;;;;;;;;;;;;;6142185;23;19931;-86
2023/05/07 00:50:08;;;;;;;;;;;;;;;;;;6116398;23;19916;-85
2023/05/07 00:52:44;;;;;;;;;;;;;;;;;;6116385;23;20411;-86
2023/05/07 00:55:12;;;;;;;;;;;;;;;;;;6115133;23;19923;-86
2023/05/07 00:57:51;;;;;;;;;;;;;;;;;;6118043;23;19924;-86
2023/05/07 01:00:17;;;;;;;;;;;;;;;;;;6116066;23;19931;-86
2023/05/07 01:02:51;;;;;;;;;;;;;;;;;;6118055;23;19924;-86
2023/05/07 01:05:17;;;;;;;;;;;;;;;;;;6117014;23;19921;-86
2023/05/07 01:07:43;;;;;;;;;;;;;;;;;;6083548;23;19988;-86
2023/05/07 01:10:18;;;;;;;;;;;;;;;;;;6034822;23;19921;-86
2023/05/07 01:13:17;;;;;;;;;;;;;;;;;;;;;
2023/05/07 01:15:49;;;;;;;;;;;;;;;;;;6059558;23;20257;-86
2023/05/07 01:18:28;;;;;;;;;;;;;;;;;;;;;
2023/05/07 01:21:08;;;;;;;;;;;;;;;;;;6116376;23;19971;-86
2023/05/07 01:23:59;;;;;;;;;;;;;;;;;;6096108;23;19928;-86
2023/05/07 01:26:37;;;;;;;;;;;;;;;;;;6087215;23;20350;-86
2023/05/07 01:32:08;;;;;;;;;;;;;;;;;;6112337;23;19924;-86
2023/05/07 01:34:39;;;;;;;;;;;;;;;;;;6099313;23;19925;-86
2023/05/07 01:37:08;;;;;;;;;;;;;;;;;;6148802;23;20391;-86
2023/05/07 01:40:08;;;;;;;;;;;;;;;;;;6191485;23;19923;-86
2023/05/07 01:42:40;;;;;;;;;;;;;;;;;;6159179;23;20002;-86
2023/05/07 01:45:16;;;;;;;;;;;;;;;;;;;;;
2023/05/07 01:47:57;;;;;;;;;;;;;;;;;;6238354;22;20395;-86
2023/05/07 01:50:26;;;;;;;;;;;;;;;;;;6213321;22;19919;-85
2023/05/07 01:52:55;;;;;;;;;;;;;;;;;;6213564;22;19919;-85
2023/05/07 01:55:23;;;;;;;;;;;;;;;;;;6212532;22;19916;-85
2023/05/07 01:57:52;;;;;;;;;;;;;;;;;;6238674;22;19927;-85
2023/05/07 02:00:21;;;;;;;;;;;;;;;;;;6212532;22;20240;-85
2023/05/07 02:02:52;;;;;;;;;;;;;;;;;;6213529;22;19917;-85
2023/05/07 02:05:21;;;;;;;;;;;;;;;;;;6212380;22;19919;-85
2023/05/07 02:07:50;;;;;;;;;;;;;;;;;;6211924;22;20406;-85
2023/05/07 02:10:19;;;;;;;;;;;;;;;;;;6210119;22;19919;-85
2023/05/07 02:12:48;;;;;;;;;;;;;;;;;;6212284;22;20069;-85
2023/05/07 02:15:14;;;;;;;;;;;;;;;;;;6237444;22;20010;-85
2023/05/07 02:17:43;;;;;;;;;;;;;;;;;;6213826;22;19924;-85
2023/05/07 02:20:13;;;;;;;;;;;;;;;;;;6237630;22;19930;-85
2023/05/07 02:22:39;;;;;;;;;;;;;;;;;;6238149;22;19915;-85
2023/05/07 02:25:11;;;;;;;;;;;;;;;;;;6211320;22;19919;-85
2023/05/07 02:27:37;;;;;;;;;;;;;;;;;;6212493;22;19919;-85
2023/05/07 02:30:08;;;;;;;;;;;;;;;;;;6213316;22;19915;-85
2023/05/07 02:32:37;;;;;;;;;;;;;;;;;;6212689;22;20639;-85
2023/05/07 02:35:06;;;;;;;;;;;;;;;;;;6212100;22;19919;-85
2023/05/07 02:37:38;;;;;;;;;;;;;;;;;;6212978;22;19984;-85
2023/05/07 02:40:07;;;;;;;;;;;;;;;;;;6238675;22;20279;-85
2023/05/07 02:42:39;;;;;;;;;;;;;;;;;;6213634;22;19962;-85
2023/05/07 02:45:10;;;;;;;;;;;;;;;;;;6237540;22;20292;-85
2023/05/07 02:47:42;;;;;;;;;;;;;;;;;;6236722;22;19969;-85
2023/05/07 02:50:08;;;;;;;;;;;;;;;;;;6236112;22;19923;-84
2023/05/07 02:52:36;;;;;;;;;;;;;;;;;;6212076;22;19923;-85
2023/05/07 02:55:10;;;;;;;;;;;;;;;;;;6237196;22;19919;-85
2023/05/07 02:57:57;;;;;;;;;;;;;;;;;;6238333;22;19929;-85
2023/05/07 03:00:22;;;;;;;;;;;;;;;;;;6233711;22;19923;-85
2023/05/07 03:03:13;;;;;;;;;;;;;;;;;;6167678;23;19920;-85
2023/05/07 03:05:44;;;;;;;;;;;;;;;;;;6176182;23;19991;-85
2023/05/07 03:11:25;;;;;;;;;;;;;;;;;;6169006;23;19924;-85
2023/05/07 03:13:55;;;;;;;;;;;;;;;;;;6176238;23;19951;-85
2023/05/07 03:16:27;;;;;;;;;;;;;;;;;;6151023;23;20378;-85
2023/05/07 03:18:55;;;;;;;;;;;;;;;;;;6151044;23;19982;-85
2023/05/07 03:21:40;;;;;;;;;;;;;;;;;;6178209;23;20489;-85
2023/05/07 03:24:12;;;;;;;;;;;;;;;;;;6160004;23;21413;-85
2023/05/07 03:26:38;;;;;;;;;;;;;;;;;;6153064;23;19920;-85
2023/05/07 03:29:12;;;;;;;;;;;;;;;;;;6151492;23;19931;-85
2023/05/07 03:31:38;;;;;;;;;;;;;;;;;;6153835;23;19920;-85
2023/05/07 03:34:04;;;;;;;;;;;;;;;;;;6210532;23;19926;-85
2023/05/07 03:36:33;;;;;;;;;;;;;;;;;;6209032;23;19919;-85
2023/05/07 03:39:12;;;;;;;;;;;;;;;;;;6217407;22;19926;-85
2023/05/07 03:41:57;;;;;;;;;;;;;;;;;;6209432;23;19923;-85
2023/05/07 03:44:23;;;;;;;;;;;;;;;;;;6208205;23;19923;-85
2023/05/07 03:46:55;;;;;;;;;;;;;;;;;;6208247;23;20249;-85
2023/05/07 03:49:36;;;;;;;;;;;;;;;;;;6234174;23;20410;-85
2023/05/07 03:52:25;;;;;;;;;;;;;;;;;;6231492;23;19916;-85
2023/05/07 03:55:18;;;;;;;;;;;;;;;;;;6211728;23;19916;-85
2023/05/07 03:57:47;;;;;;;;;;;;;;;;;;6233825;23;19931;-85
2023/05/07 04:00:27;;;;;;;;;;;;;;;;;;6232954;23;19926;-85
2023/05/07 04:02:53;;;;;;;;;;;;;;;;;;6209242;23;19923;-85
2023/05/07 04:08:08;;;;;;;;;;;;;;;;;;6230976;23;19951;-85
2023/05/07 04:10:34;;;;;;;;;;;;;;;;;;6208430;23;19981;-85
2023/05/07 04:13:05;;;;;;;;;;;;;;;;;;6207438;23;19916;-85
2023/05/07 04:15:34;;;;;;;;;;;;;;;;;;6234009;23;20401;-85
2023/05/07 04:18:03;;;;;;;;;;;;;;;;;;6209871;23;20266;-85
2023/05/07 04:20:31;;;;;;;;;;;;;;;;;;6209807;23;20353;-85
2023/05/07 04:23:03;;;;;;;;;;;;;;;;;;6209917;23;19916;-85
2023/05/07 04:25:29;;;;;;;;;;;;;;;;;;6229458;23;20249;-85
2023/05/07 04:28:40;;;;;;;;;;;;;;;;;;6233328;23;19922;-85
2023/05/07 04:30:41;;;;;;;;;;;;;;;;;;6191758;23;19920;-85
2023/05/07 04:33:07;;;;;;;;;;;;;;;;;;6174784;23;19926;-86
2023/05/07 04:35:36;;;;;;;;;;;;;;;;;;6153653;23;19923;-85
2023/05/07 04:38:03;;;;;;;;;;;;;;;;;;6178599;23;19987;-85
2023/05/07 04:40:42;;;;;;;;;;;;;;;;;;;;;
2023/05/07 04:43:09;;;;;;;;;;;;;;;;;;6174688;23;19916;-85
2023/05/07 04:45:37;;;;;;;;;;;;;;;;;;6150765;23;20099;-86
2023/05/07 04:48:06;;;;;;;;;;;;;;;;;;6151313;23;19916;-85
2023/05/07 04:50:35;;;;;;;;;;;;;;;;;;6150996;23;20337;-85
2023/05/07 04:53:06;;;;;;;;;;;;;;;;;;6150428;23;19915;-85
2023/05/07 04:55:51;;;;;;;;;;;;;;;;;;6177298;23;20029;-85
2023/05/07 04:58:20;;;;;;;;;;;;;;;;;;6150848;23;20279;-85
2023/05/07 05:00:49;;;;;;;;;;;;;;;;;;6155965;23;19924;-85
2023/05/07 05:03:18;;;;;;;;;;;;;;;;;;6204686;23;19990;-85
2023/05/07 05:05:46;;;;;;;;;;;;;;;;;;6233667;23;20016;-85
2023/05/07 05:08:18;;;;;;;;;;;;;;;;;;6231976;23;19919;-85
2023/05/07 05:10:54;;;;;;;;;;;;;;;;;;;;;
2023/05/07 05:13:21;;;;;;;;;;;;;;;;;;6228567;23;19919;-85
2023/05/07 05:15:49;;;;;;;;;;;;;;;;;;6209176;23;20252;-85
2023/05/07 05:18:21;;;;;;;;;;;;;;;;;;6208061;23;19920;-85
2023/05/07 05:20:47;;;;;;;;;;;;;;;;;;6210373;23;19973;-85
2023/05/07 05:23:13;;;;;;;;;;;;;;;;;;6208868;23;19919;-85
2023/05/07 05:25:40;;;;;;;;;;;;;;;;;;6210355;23;20104;-85
2023/05/07 05:28:18;;;;;;;;;;;;;;;;;;6206383;23;19943;-85
2023/05/07 05:30:50;;;;;;;;;;;;;;;;;;6206933;23;20202;-85
2023/05/07 05:33:19;;;;;;;;;;;;;;;;;;6206313;23;19950;-85
2023/05/07 05:35:51;;;;;;;;;;;;;;;;;;6236073;23;20249;-85
2023/05/07 05:38:33;;;;;;;;;;;;;;;;;;6235639;22;19919;-85
2023/05/07 05:41:02;;;;;;;;;;;;;;;;;;6209670;23;19920;-85
2023/05/07 05:43:33;;;;;;;;;;;;;;;;;;6211063;23;19953;-85
2023/05/07 05:46:04;;;;;;;;;;;;;;;;;;6208895;23;19915;-85
2023/05/07 05:48:38;;;;;;;;;;;;;;;;;;6211015;23;19916;-85
2023/05/07 05:51:07;;;;;;;;;;;;;;;;;;6210264;23;20328;-85
2023/05/07 05:53:35;;;;;;;;;;;;;;;;;;6209991;23;19977;-85
2023/05/07 05:56:01;;;;;;;;;;;;;;;;;;6209515;23;19990;-85
2023/05/07 05:58:30;;;;;;;;;;;;;;;;;;6208169;23;19919;-85
2023/05/07 06:03:44;;;;;;;;;;;;;;;;;;6203195;23;20265;-86
2023/05/07 06:06:23;;;;;;;;;;;;;;;;;;6176862;23;19944;-85
2023/05/07 06:08:54;;;;;;;;;;;;;;;;;;6179885;23;20272;-86
2023/05/07 06:11:26;;;;;;;;;;;;;;;;;;6175957;23;20377;-85
2023/05/07 06:13:52;;;;;;;;;;;;;;;;;;6153275;23;19947;-86
2023/05/07 06:16:30;;;;;;;;;;;;;;;;;;6150980;23;19943;-85
2023/05/07 06:19:14;;;;;;;;;;;;;;;;;;6154901;23;20002;-85
2023/05/07 06:21:45;;;;;;;;;;;;;;;;;;6179392;23;19920;-86
2023/05/07 06:24:14;;;;;;;;;;;;;;;;;;6149282;23;19920;-85
2023/05/07 06:29:40;;;;;;;;;;;;;;;;;;6194015;23;20371;-85
2023/05/07 06:32:06;;;;;;;;;;;;;;;;;;6148382;23;20022;-85
2023/05/07 06:34:32;;;;;;;;;;;;;;;;;;6172018;23;19920;-86
2023/05/07 06:37:07;;;;;;;;;;;;;;;;;;6208802;23;19954;-86
2023/05/07 06:39:33;;;;;;;;;;;;;;;;;;6206171;23;20325;-85
2023/05/07 06:42:11;;;;;;;;;;;;;;;;;;6207898;23;20348;-86
2023/05/07 06:44:37;;;;;;;;;;;;;;;;;;6209670;23;19990;-86
2023/05/07 06:47:07;;;;;;;;;;;;;;;;;;6231752;23;19920;-85
2023/05/07 06:49:50;;;;;;;;;;;;;;;;;;6210750;23;19926;-85
2023/05/07 06:52:16;;;;;;;;;;;;;;;;;;6234730;23;19915;-85
2023/05/07 06:54:44;;;;;;;;;;;;;;;;;;6210002;23;20384;-85
2023/05/07 06:57:16;;;;;;;;;;;;;;;;;;6227546;23;19958;-85
2023/05/07 06:59:45;;;;;;;;;;;;;;;;;;6207111;23;19931;-85
2023/05/07 07:02:16;;;;;;;;;;;;;;;;;;6228210;23;19919;-85
2023/05/07 07:04:45;;;;;;;;;;;;;;;;;;6208007;23;19939;-85
2023/05/07 07:07:14;;;;;;;;;;;;;;;;;;6208186;23;19982;-85
2023/05/07 07:09:40;;;;;;;;;;;;;;;;;;6210988;23;19951;-85
2023/05/07 07:12:09;;;;;;;;;;;;;;;;;;6208535;23;19919;-85
2023/05/07 07:14:35;;;;;;;;;;;;;;;;;;6207313;23;19994;-85
2023/05/07 07:17:01;;;;;;;;;;;;;;;;;;6207586;23;19919;-85
2023/05/07 07:19:27;;;;;;;;;;;;;;;;;;6206550;23;20341;-85
2023/05/07 07:21:53;;;;;;;;;;;;;;;;;;6207670;23;20150;-85
2023/05/07 07:24:21;;;;;;;;;;;;;;;;;;6233288;23;19942;-85
2023/05/07 07:26:52;;;;;;;;;;;;;;;;;;6235089;23;19926;-85
2023/05/07 07:29:18;;;;;;;;;;;;;;;;;;6206772;23;19922;-85
2023/05/07 07:31:53;;;;;;;;;;;;;;;;;;6209267;23;19978;-85
2023/05/07 07:34:22;;;;;;;;;;;;;;;;;;6231173;23;20398;-84
2023/05/07 07:36:51;;;;;;;;;;;;;;;;;;6206484;23;20285;-85
2023/05/07 07:39:17;;;;;;;;;;;;;;;;;;6205597;23;19920;-86
2023/05/07 07:41:43;;;;;;;;;;;;;;;;;;6206050;23;19926;-85
2023/05/07 07:44:12;;;;;;;;;;;;;;;;;;6206446;23;20340;-85
2023/05/07 07:46:38;;;;;;;;;;;;;;;;;;6207748;23;19916;-85
2023/05/07 07:49:07;;;;;;;;;;;;;;;;;;6233119;23;19923;-85
2023/05/07 07:51:33;;;;;;;;;;;;;;;;;;6233096;23;19927;-85
2023/05/07 07:53:59;;;;;;;;;;;;;;;;;;6207021;23;20355;-85
2023/05/07 07:56:25;;;;;;;;;;;;;;;;;;6228531;23;20248;-85
2023/05/07 07:58:51;;;;;;;;;;;;;;;;;;6207990;23;19927;-85
2023/05/07 08:01:17;;;;;;;;;;;;;;;;;;6205563;23;19916;-85
2023/05/07 08:03:43;;;;;;;;;;;;;;;;;;6207136;23;19919;-85
2023/05/07 08:06:11;;;;;;;;;;;;;;;;;;6233398;23;19919;-85
2023/05/07 08:08:37;;;;;;;;;;;;;;;;;;6234519;23;19915;-85
2023/05/07 08:11:07;;;;;;;;;;;;;;;;;;6234884;23;19981;-85
2023/05/07 08:13:33;;;;;;;;;;;;;;;;;;6207511;23;20405;-85
2023/05/07 08:15:59;;;;;;;;;;;;;;;;;;6205509;23;19959;-85
2023/05/07 08:18:25;;;;;;;;;;;;;;;;;;6207135;23;19919;-85
2023/05/07 08:20:51;;;;;;;;;;;;;;;;;;6230655;23;19924;-85
2023/05/07 08:23:17;;;;;;;;;;;;;;;;;;6205615;23;19942;-85
2023/05/07 08:25:43;;;;;;;;;;;;;;;;;;6208408;23;19924;-84
2023/05/07 08:28:12;;;;;;;;;;;;;;;;;;6206952;23;19919;-85
2023/05/07 08:30:38;;;;;;;;;;;;;;;;;;6209063;23;20224;-85
2023/05/07 08:33:09;;;;;;;;;;;;;;;;;;6208853;23;20006;-84
2023/05/07 08:35:35;;;;;;;;;;;;;;;;;;6207624;23;19919;-84
2023/05/07 08:38:01;;;;;;;;;;;;;;;;;;6209002;23;20396;-85
2023/05/07 08:40:27;;;;;;;;;;;;;;;;;;6231445;22;19931;-85
2023/05/07 08:42:53;;;;;;;;;;;;;;;;;;6208552;23;19915;-85
2023/05/07 08:48:18;;;;;;;;;;;;;;;;;;6231250;23;19919;-84
2023/05/07 08:50:44;;;;;;;;;;;;;;;;;;6208187;23;19995;-85
2023/05/07 08:53:10;;;;;;;;;;;;;;;;;;6205972;23;20069;-85
2023/05/07 08:55:35;;;;;;;;;;;;;;;;;;6209480;23;20366;-84
2023/05/07 08:58:01;;;;;;;;;;;;;;;;;;6235926;23;19919;-84
2023/05/07 09:00:27;;;;;;;;;;;;;;;;;;6209956;23;19927;-84
2023/05/07 09:02:53;;;;;;;;;;;;;;;;;;6234368;23;19924;-84
2023/05/07 09:05:22;;;;;;;;;;;;;;;;;;6208168;23;19941;-85
2023/05/07 09:07:48;;;;;;;;;;;;;;;;;;6236118;23;19927;-85
2023/05/07 09:10:15;;;;;;;;;;;;;;;;;;6204588;23;19924;-85
2023/05/07 09:12:41;;;;;;;;;;;;;;;;;;6234591;23;20042;-85
2023/05/07 09:15:07;;;;;;;;;;;;;;;;;;6208787;23;19920;-85
2023/05/07 09:17:51;;;;;;;;;;;;;;;;;;6235090;23;19924;-84
2023/05/07 09:20:17;;;;;;;;;;;;;;;;;;6233481;23;19923;-85
2023/05/07 09:22:44;;;;;;;;;;;;;;;;;;6208327;23;20296;-85
2023/05/07 09:25:10;;;;;;;;;;;;;;;;;;6206565;23;19953;-85
2023/05/07 09:27:36;;;;;;;;;;;;;;;;;;6233707;23;20126;-85
2023/05/07 09:30:05;;;;;;;;;;;;;;;;;;6210485;23;19923;-84
2023/05/07 09:32:34;;;;;;;;;;;;;;;;;;6232475;23;19943;-84
2023/05/07 09:35:00;;;;;;;;;;;;;;;;;;6210026;23;20325;-85
2023/05/07 09:37:26;;;;;;;;;;;;;;;;;;6231731;23;19926;-85
2023/05/07 09:39:52;;;;;;;;;;;;;;;;;;6235043;22;19924;-84
2023/05/07 09:42:18;;;;;;;;;;;;;;;;;;6205753;23;20249;-85
2023/05/07 09:44:47;;;;;;;;;;;;;;;;;;6207700;23;20332;-84
2023/05/07 09:47:13;;;;;;;;;;;;;;;;;;6207203;23;19926;-85
2023/05/07 09:49:39;;;;;;;;;;;;;;;;;;6207328;23;19920;-85
2023/05/07 09:52:14;;;;;;;;;;;;;;;;;;6232382;23;19977;-86
2023/05/07 09:54:43;;;;;;;;;;;;;;;;;;6233564;23;19953;-85
2023/05/07 09:57:12;;;;;;;;;;;;;;;;;;6205638;23;20343;-85
2023/05/07 09:59:41;;;;;;;;;;;;;;;;;;6229784;23;19919;-85
2023/05/07 10:02:07;;;;;;;;;;;;;;;;;;6230957;23;19919;-85
2023/05/07 10:04:33;;;;;;;;;;;;;;;;;;6204870;23;19919;-85
2023/05/07 10:06:59;;;;;;;;;;;;;;;;;;6234458;23;19920;-85
2023/05/07 10:09:44;;;;;;;;;;;;;;;;;;;;;
2023/05/07 10:12:10;;;;;;;;;;;;;;;;;;6234881;22;19923;-85
2023/05/07 10:14:36;;;;;;;;;;;;;;;;;;6213132;22;19931;-85
2023/05/07 10:17:02;;;;;;;;;;;;;;;;;;6214003;22;19920;-85
2023/05/07 10:19:28;;;;;;;;;;;;;;;;;;6209277;22;20359;-85
2023/05/07 10:21:57;;;;;;;;;;;;;;;;;;6214225;22;19969;-84
2023/05/07 10:24:23;;;;;;;;;;;;;;;;;;6211315;22;19989;-85
2023/05/07 10:26:49;;;;;;;;;;;;;;;;;;6238611;22;19926;-85
2023/05/07 10:29:15;;;;;;;;;;;;;;;;;;6210751;22;19919;-85
2023/05/07 10:31:41;;;;;;;;;;;;;;;;;;6213459;22;19980;-85
2023/05/07 10:34:16;;;;;;;;;;;;;;;;;;6209518;22;19919;-85
2023/05/07 10:37:01;;;;;;;;;;;;;;;;;;6210448;23;19966;-84
2023/05/07 10:39:27;;;;;;;;;;;;;;;;;;6174042;23;19920;-85
2023/05/07 10:41:53;;;;;;;;;;;;;;;;;;6175607;23;19916;-85
2023/05/07 10:44:24;;;;;;;;;;;;;;;;;;6173291;23;19920;-85
2023/05/07 10:47:08;;;;;;;;;;;;;;;;;;6204161;23;19973;-84
2023/05/07 10:49:34;;;;;;;;;;;;;;;;;;6175006;23;20337;-85
2023/05/07 10:52:00;;;;;;;;;;;;;;;;;;6170881;23;19938;-85
2023/05/07 10:54:26;;;;;;;;;;;;;;;;;;6171021;23;19920;-85
2023/05/07 10:56:52;;;;;;;;;;;;;;;;;;6176910;23;20337;-84
2023/05/07 10:59:18;;;;;;;;;;;;;;;;;;6174569;23;19923;-84
2023/05/07 11:01:54;;;;;;;;;;;;;;;;;;6219937;22;20033;-84
2023/05/07 11:04:25;;;;;;;;;;;;;;;;;;6210767;22;19982;-85
2023/05/07 11:06:53;;;;;;;;;;;;;;;;;;6212655;22;19953;-84
2023/05/07 11:09:19;;;;;;;;;;;;;;;;;;6237748;22;19915;-85
2023/05/07 11:11:51;;;;;;;;;;;;;;;;;;6239667;22;20246;-84
2023/05/07 11:14:17;;;;;;;;;;;;;;;;;;6235650;22;19927;-84
2023/05/07 11:16:43;;;;;;;;;;;;;;;;;;6213352;22;19915;-84
2023/05/07 11:19:09;;;;;;;;;;;;;;;;;;6235179;22;19926;-85
2023/05/07 11:21:35;;;;;;;;;;;;;;;;;;6238391;22;19915;-84
2023/05/07 11:24:01;;;;;;;;;;;;;;;;;;6214389;22;20033;-84
2023/05/07 11:26:27;;;;;;;;;;;;;;;;;;6234559;22;19950;-84
2023/05/07 11:28:53;;;;;;;;;;;;;;;;;;6213000;22;20283;-84
2023/05/07 11:31:19;;;;;;;;;;;;;;;;;;6236477;22;19919;-85
2023/05/07 11:33:45;;;;;;;;;;;;;;;;;;6213259;22;20302;-84
2023/05/07 11:36:11;;;;;;;;;;;;;;;;;;6209696;22;19947;-85
2023/05/07 11:38:38;;;;;;;;;;;;;;;;;;6213103;22;19981;-84
2023/05/07 11:41:07;;;;;;;;;;;;;;;;;;6238170;22;19981;-84
2023/05/07 11:43:35;;;;;;;;;;;;;;;;;;6212818;22;19915;-84
2023/05/07 11:46:01;;;;;;;;;;;;;;;;;;6211835;22;20085;-84
2023/05/07 11:48:42;;;;;;;;;;;;;;;;;;6236012;22;19962;-84
2023/05/07 11:51:08;;;;;;;;;;;;;;;;;;6235967;22;19985;-84
2023/05/07 11:53:34;;;;;;;;;;;;;;;;;;6238935;22;19923;-84
2023/05/07 11:56:13;;;;;;;;;;;;;;;;;;6238102;22;19919;-84
2023/05/07 11:58:39;;;;;;;;;;;;;;;;;;6212096;22;20066;-84
2023/05/07 12:01:05;;;;;;;;;;;;;;;;;;6207908;22;20767;-85
2023/05/07 12:03:31;;;;;;;;;;;;;;;;;;6236592;22;19919;-84
2023/05/07 12:05:57;;;;;;;;;;;;;;;;;;6210626;22;19981;-84
2023/05/07 12:08:23;;;;;;;;;;;;;;;;;;6210157;22;19919;-84
2023/05/07 12:10:49;;;;;;;;;;;;;;;;;;6210989;22;20332;-84
2023/05/07 12:13:15;;;;;;;;;;;;;;;;;;6232870;22;19923;-84
2023/05/07 12:15:41;;;;;;;;;;;;;;;;;;6213030;22;19915;-83
2023/05/07 12:18:07;;;;;;;;;;;;;;;;;;6211336;22;20351;-84
2023/05/07 12:20:33;;;;;;;;;;;;;;;;;;6214181;22;19931;-84
2023/05/07 12:22:59;;;;;;;;;;;;;;;;;;6239431;22;19915;-84
2023/05/07 12:25:25;;;;;;;;;;;;;;;;;;6211558;22;20339;-84
2023/05/07 12:27:51;;;;;;;;;;;;;;;;;;6210619;22;19916;-84
2023/05/07 12:30:17;;;;;;;;;;;;;;;;;;6212004;22;19919;-84
2023/05/07 12:32:43;;;;;;;;;;;;;;;;;;6214130;22;20243;-84
2023/05/07 12:35:09;;;;;;;;;;;;;;;;;;6212307;22;19920;-84
2023/05/07 12:37:38;;;;;;;;;;;;;;;;;;6213161;22;20368;-84
2023/05/07 12:40:07;;;;;;;;;;;;;;;;;;6238677;22;20000;-84
2023/05/07 12:42:36;;;;;;;;;;;;;;;;;;6215252;22;19990;-84
2023/05/07 12:45:02;;;;;;;;;;;;;;;;;;6239371;22;19919;-84
2023/05/07 12:47:28;;;;;;;;;;;;;;;;;;6212779;22;20229;-84
2023/05/07 12:49:54;;;;;;;;;;;;;;;;;;6239192;22;19946;-85
2023/05/07 12:52:20;;;;;;;;;;;;;;;;;;6237823;22;19986;-85
2023/05/07 12:54:46;;;;;;;;;;;;;;;;;;6215857;22;19954;-84
2023/05/07 12:57:12;;;;;;;;;;;;;;;;;;6237943;22;19989;-84
2023/05/07 12:59:38;;;;;;;;;;;;;;;;;;6215202;22;20222;-84
2023/05/07 13:02:07;;;;;;;;;;;;;;;;;;6215124;22;19930;-84
2023/05/07 13:04:33;;;;;;;;;;;;;;;;;;6235692;22;19950;-84
2023/05/07 13:06:59;;;;;;;;;;;;;;;;;;6214764;22;20240;-84
2023/05/07 13:09:25;;;;;;;;;;;;;;;;;;6212240;22;20141;-85
2023/05/07 13:11:51;;;;;;;;;;;;;;;;;;6208475;23;19927;-84
2023/05/07 13:14:17;;;;;;;;;;;;;;;;;;6208077;23;19923;-84
2023/05/07 13:16:43;;;;;;;;;;;;;;;;;;6235117;23;20238;-84
2023/05/07 13:19:09;;;;;;;;;;;;;;;;;;6206701;23;19927;-85
2023/05/07 13:21:35;;;;;;;;;;;;;;;;;;6233996;23;19919;-84
2023/05/07 13:24:01;;;;;;;;;;;;;;;;;;6209474;23;20256;-84
2023/05/07 13:26:27;;;;;;;;;;;;;;;;;;6207286;23;19916;-84
2023/05/07 13:28:52;;;;;;;;;;;;;;;;;;6235354;23;19943;-84
2023/05/07 13:31:20;;;;;;;;;;;;;;;;;;6232784;23;19990;-84
2023/05/07 13:33:46;;;;;;;;;;;;;;;;;;6209619;23;19990;-84
2023/05/07 13:36:12;;;;;;;;;;;;;;;;;;6233657;23;19962;-84
2023/05/07 13:38:38;;;;;;;;;;;;;;;;;;6210858;22;20329;-84
2023/05/07 13:41:10;;;;;;;;;;;;;;;;;;6211546;23;19924;-84
2023/05/07 13:43:36;;;;;;;;;;;;;;;;;;6236977;23;19999;-84
2023/05/07 13:46:02;;;;;;;;;;;;;;;;;;6211099;23;20005;-84
2023/05/07 13:48:31;;;;;;;;;;;;;;;;;;6234369;23;20351;-83
2023/05/07 13:50:57;;;;;;;;;;;;;;;;;;6211778;23;20229;-84
2023/05/07 13:53:26;;;;;;;;;;;;;;;;;;6235391;23;19926;-82
2023/05/07 13:56:08;;;;;;;;;;;;;;;;;;6211731;23;19926;-84
2023/05/07 13:58:38;;;;;;;;;;;;;;;;;;6212833;23;20252;-83
2023/05/07 14:01:07;;;;;;;;;;;;;;;;;;6236183;23;19924;-83
2023/05/07 14:03:33;;;;;;;;;;;;;;;;;;6208679;23;19959;-84
2023/05/07 14:06:01;;;;;;;;;;;;;;;;;;6211911;23;19986;-83
2023/05/07 14:08:27;;;;;;;;;;;;;;;;;;6234777;23;19924;-84
2023/05/07 14:10:53;;;;;;;;;;;;;;;;;;6214343;22;19920;-84
2023/05/07 14:13:19;;;;;;;;;;;;;;;;;;6214780;22;19919;-84
2023/05/07 14:15:46;;;;;;;;;;;;;;;;;;6240938;22;19969;-84
2023/05/07 14:18:12;;;;;;;;;;;;;;;;;;6233707;22;19919;-84
2023/05/07 14:20:38;;;;;;;;;;;;;;;;;;6212672;22;20026;-84
2023/05/07 14:23:07;;;;;;;;;;;;;;;;;;6240045;22;19994;-84
2023/05/07 14:25:33;;;;;;;;;;;;;;;;;;6214697;22;19920;-84
2023/05/07 14:27:59;;;;;;;;;;;;;;;;;;6212267;22;20281;-85
2023/05/07 14:30:25;;;;;;;;;;;;;;;;;;6209027;22;20301;-85
2023/05/07 14:32:51;;;;;;;;;;;;;;;;;;6211504;22;19919;-84
2023/05/07 14:35:17;;;;;;;;;;;;;;;;;;6207757;22;19986;-84
2023/05/07 14:37:43;;;;;;;;;;;;;;;;;;6208023;22;20332;-84
2023/05/07 14:40:09;;;;;;;;;;;;;;;;;;6208057;22;19923;-84
2023/05/07 14:42:35;;;;;;;;;;;;;;;;;;6211540;22;19915;-84
2023/05/07 14:45:01;;;;;;;;;;;;;;;;;;6233257;22;19926;-83
2023/05/07 14:47:27;;;;;;;;;;;;;;;;;;6206243;22;19926;-84
2023/05/07 14:49:55;;;;;;;;;;;;;;;;;;6209645;22;20336;-85
2023/05/07 14:52:25;;;;;;;;;;;;;;;;;;6209707;22;20451;-86
2023/05/07 14:54:51;;;;;;;;;;;;;;;;;;6211651;22;19919;-85
2023/05/07 14:57:20;;;;;;;;;;;;;;;;;;6209858;22;19969;-85
2023/05/07 14:59:46;;;;;;;;;;;;;;;;;;6213755;22;19958;-86
2023/05/07 15:02:18;;;;;;;;;;;;;;;;;;6207101;22;19985;-85
2023/05/07 15:04:48;;;;;;;;;;;;;;;;;;6234711;22;19927;-86
2023/05/07 15:07:20;;;;;;;;;;;;;;;;;;6209525;22;19927;-86
2023/05/07 15:09:46;;;;;;;;;;;;;;;;;;6209932;22;20394;-85
2023/05/07 15:12:15;;;;;;;;;;;;;;;;;;6231240;22;20311;-85
2023/05/07 15:14:42;;;;;;;;;;;;;;;;;;6208622;22;20206;-85
2023/05/07 15:17:08;;;;;;;;;;;;;;;;;;6208808;22;19915;-86
2023/05/07 15:19:34;;;;;;;;;;;;;;;;;;6209989;22;19934;-85
2023/05/07 15:22:02;;;;;;;;;;;;;;;;;;6211022;22;20240;-85
2023/05/07 15:24:28;;;;;;;;;;;;;;;;;;6206205;22;19935;-84
2023/05/07 15:26:54;;;;;;;;;;;;;;;;;;6209971;22;19962;-84
2023/05/07 15:29:20;;;;;;;;;;;;;;;;;;6209284;22;19973;-83
2023/05/07 15:31:46;;;;;;;;;;;;;;;;;;6235718;22;19919;-84
2023/05/07 15:34:15;;;;;;;;;;;;;;;;;;6209020;22;20471;-85
2023/05/07 15:36:41;;;;;;;;;;;;;;;;;;6235455;22;19920;-84
2023/05/07 15:39:07;;;;;;;;;;;;;;;;;;6208642;22;20317;-85
2023/05/07 15:41:33;;;;;;;;;;;;;;;;;;6209699;22;19915;-84
2023/05/07 15:43:59;;;;;;;;;;;;;;;;;;6236965;22;19990;-84
2023/05/07 15:46:25;;;;;;;;;;;;;;;;;;6261547;22;19958;-84
2023/05/07 15:48:51;;;;;;;;;;;;;;;;;;6210246;22;19952;-84
2023/05/07 15:51:17;;;;;;;;;;;;;;;;;;6209667;22;20328;-83
2023/05/07 15:53:43;;;;;;;;;;;;;;;;;;6210449;22;19926;-84
2023/05/07 15:56:09;;;;;;;;;;;;;;;;;;6257960;22;19919;-84
2023/05/07 15:58:36;;;;;;;;;;;;;;;;;;6211318;22;20260;-84
2023/05/07 16:01:09;;;;;;;;;;;;;;;;;;6211902;22;20233;-84
2023/05/07 16:03:37;;;;;;;;;;;;;;;;;;6211722;22;19923;-84
2023/05/07 16:06:03;;;;;;;;;;;;;;;;;;6208474;22;19919;-84
2023/05/07 16:08:32;;;;;;;;;;;;;;;;;;6234753;22;20328;-84
2023/05/07 16:10:58;;;;;;;;;;;;;;;;;;6208923;22;19919;-84
2023/05/07 16:13:33;;;;;;;;;;;;;;;;;;6207595;22;20279;-86
2023/05/07 16:16:14;;;;;;;;;;;;;;;;;;6208279;22;19919;-84
2023/05/07 16:18:40;;;;;;;;;;;;;;;;;;6212091;22;20215;-84
2023/05/07 16:21:06;;;;;;;;;;;;;;;;;;6205522;22;20411;-84
2023/05/07 16:23:32;;;;;;;;;;;;;;;;;;6208960;22;20012;-84
2023/05/07 16:26:06;;;;;;;;;;;;;;;;;;6260391;22;19915;-85
2023/05/07 16:28:32;;;;;;;;;;;;;;;;;;6207644;22;19946;-84
2023/05/07 16:30:58;;;;;;;;;;;;;;;;;;6208180;22;20350;-84
2023/05/07 16:33:24;;;;;;;;;;;;;;;;;;6207299;22;19928;-84
2023/05/07 16:35:50;;;;;;;;;;;;;;;;;;6209336;22;19919;-84
2023/05/07 16:38:16;;;;;;;;;;;;;;;;;;6230932;22;19927;-84
2023/05/07 16:40:45;;;;;;;;;;;;;;;;;;6208321;22;19923;-84
2023/05/07 16:43:11;;;;;;;;;;;;;;;;;;6209424;22;20404;-84
2023/05/07 16:45:37;;;;;;;;;;;;;;;;;;6207760;22;20324;-84
2023/05/07 16:48:04;;;;;;;;;;;;;;;;;;6233006;22;20356;-84
2023/05/07 16:50:33;;;;;;;;;;;;;;;;;;6231115;22;20244;-84
2023/05/07 16:52:59;;;;;;;;;;;;;;;;;;6211303;22;19919;-84
2023/05/07 16:55:25;;;;;;;;;;;;;;;;;;6208354;22;20285;-84
2023/05/07 16:57:51;;;;;;;;;;;;;;;;;;6234711;22;20297;-85
2023/05/07 17:00:18;;;;;;;;;;;;;;;;;;6228133;22;19923;-84
2023/05/07 17:02:45;;;;;;;;;;;;;;;;;;6209068;22;19994;-84
2023/05/07 17:05:32;;;;;;;;;;;;;;;;;;6206755;22;20651;-85
2023/05/07 17:08:15;;;;;;;;;;;;;;;;;;6236421;22;20010;-84
2023/05/07 17:10:41;;;;;;;;;;;;;;;;;;6211574;22;19919;-84
2023/05/07 17:13:07;;;;;;;;;;;;;;;;;;6206116;22;19972;-84
2023/05/07 17:15:33;;;;;;;;;;;;;;;;;;6207119;22;19994;-84
2023/05/07 17:17:59;;;;;;;;;;;;;;;;;;6212871;22;19969;-84
2023/05/07 17:20:26;;;;;;;;;;;;;;;;;;6209425;22;20346;-84
2023/05/07 17:22:52;;;;;;;;;;;;;;;;;;6212204;22;19953;-84
2023/05/07 17:25:22;;;;;;;;;;;;;;;;;;6229123;22;19919;-84
2023/05/07 17:27:48;;;;;;;;;;;;;;;;;;6208541;22;19934;-84
2023/05/07 17:30:14;;;;;;;;;;;;;;;;;;6210906;22;19923;-85
2023/05/07 17:32:40;;;;;;;;;;;;;;;;;;6238289;22;19917;-85
2023/05/07 17:35:06;;;;;;;;;;;;;;;;;;6235523;22;19930;-84